Аэропорт: Брест-2. Брест

ICAO: UMBB

METAR:
2018/09/23 11:00
UMBB 231100Z 24006G09MPS 9999 -SHRA BKN040CB 16/08 Q1014 NOSIG
METAR:
2018/08/29 12:21
TAF UMBB 291405Z 2912/2924 34005MPS 6000 BKN015 
      TEMPO 2915/2918 3000 -SHRA SCT020CB 
      TEMPO 2918/2924 2000 BR BKN005